createdAt,value
2018-12-15T00:01:56.132Z,100079.20
2018-12-15T00:04:23.975Z,100075.73
2018-12-15T00:06:52.967Z,100072.44
2018-12-15T00:09:20.937Z,100082.33
2018-12-15T00:11:48.996Z,100081.48
2018-12-15T00:14:16.978Z,100082.30
2018-12-15T00:16:45.903Z,100082.77
2018-12-15T00:19:14.295Z,100075.92
2018-12-15T00:21:41.967Z,100084.98
2018-12-15T00:24:09.673Z,100082.33
2018-12-15T00:26:37.236Z,100080.58
2018-12-15T00:29:05.070Z,100076.25
2018-12-15T00:31:32.632Z,100078.91
2018-12-15T00:34:00.186Z,100082.30
2018-12-15T00:36:27.706Z,100086.16
2018-12-15T00:38:56.065Z,100091.66
2018-12-15T00:41:24.220Z,100081.86
2018-12-15T00:43:52.101Z,100095.62
2018-12-15T00:46:19.776Z,100096.03
2018-12-15T00:48:47.567Z,100099.88
2018-12-15T00:51:15.330Z,100098.98
2018-12-15T00:53:43.288Z,100109.80
2018-12-15T00:56:11.463Z,100108.50
2018-12-15T00:58:40.067Z,100113.67
2018-12-15T01:01:08.060Z,100108.13
2018-12-15T01:03:35.779Z,100109.09
2018-12-15T01:06:03.751Z,100121.56
2018-12-15T01:08:31.381Z,100124.92
2018-12-15T01:10:59.731Z,100121.11
2018-12-15T01:13:27.879Z,100125.37
2018-12-15T01:15:55.609Z,100132.65
2018-12-15T01:18:24.991Z,100136.52
2018-12-15T01:20:55.328Z,100136.10
2018-12-15T01:23:22.928Z,100142.53
2018-12-15T01:25:54.726Z,100142.98
2018-12-15T01:28:22.864Z,100141.72
2018-12-15T01:30:50.559Z,100137.41
2018-12-15T01:33:18.526Z,100143.78
2018-12-15T01:35:47.038Z,100151.11
2018-12-15T01:38:14.616Z,100151.16
2018-12-15T01:40:42.780Z,100153.72
2018-12-15T01:43:10.519Z,100166.70
2018-12-15T01:45:38.467Z,100158.50
2018-12-15T01:48:07.114Z,100157.20
2018-12-15T01:50:35.860Z,100164.98
2018-12-15T01:53:04.525Z,100164.47
2018-12-15T01:55:32.520Z,100167.03
2018-12-15T01:58:00.330Z,100166.66
2018-12-15T02:00:28.027Z,100155.91
2018-12-15T02:02:55.926Z,100165.42
2018-12-15T02:05:24.656Z,100105.00
2018-12-15T02:07:53.335Z,100161.12
2018-12-15T02:10:21.401Z,100152.91
2018-12-15T02:12:49.067Z,100155.00
2018-12-15T02:15:16.753Z,100152.02
2018-12-15T02:17:45.001Z,100149.05
2018-12-15T02:20:13.126Z,100155.13
2018-12-15T02:22:40.962Z,100145.22
2018-12-15T02:25:08.615Z,100140.47
2018-12-15T02:27:36.417Z,100149.48
2018-12-15T02:30:05.394Z,100146.45
2018-12-15T02:32:33.769Z,100147.25
2018-12-15T02:35:01.377Z,100145.95
2018-12-15T02:37:31.483Z,100139.53
2018-12-15T02:40:00.173Z,100136.09
2018-12-15T02:42:28.380Z,100131.31
2018-12-15T02:44:56.558Z,100132.25
2018-12-15T02:47:24.502Z,100127.49
2018-12-15T02:49:52.262Z,100119.31
2018-12-15T02:52:20.235Z,100106.88
2018-12-15T02:54:48.698Z,100110.31
2018-12-15T02:57:16.708Z,100107.84
2018-12-15T02:59:44.699Z,100103.52
2018-12-15T03:02:12.458Z,100103.91
2018-12-15T03:04:39.980Z,100099.16
2018-12-15T03:07:08.169Z,100102.15
2018-12-15T03:09:36.178Z,100094.83
2018-12-15T03:12:04.432Z,100091.42
2018-12-15T03:14:32.271Z,100089.76
2018-12-15T03:17:06.156Z,100088.81
2018-12-15T03:19:33.683Z,100085.40
2018-12-15T03:22:02.329Z,100085.45
2018-12-15T03:24:30.332Z,100085.44
2018-12-15T03:26:57.975Z,100082.40
2018-12-15T03:29:25.580Z,100085.45
2018-12-15T03:31:54.811Z,100073.41
2018-12-15T03:34:22.686Z,100082.85
2018-12-15T03:36:50.280Z,100085.02
2018-12-15T03:39:17.804Z,100091.48
2018-12-15T03:41:45.365Z,100097.52
2018-12-15T03:44:12.895Z,100109.47
2018-12-15T03:46:40.444Z,100110.31
2018-12-15T03:49:08.001Z,100114.72
2018-12-15T03:51:35.552Z,100105.25
2018-12-15T03:54:03.060Z,100112.13
2018-12-15T03:56:30.621Z,100118.49
2018-12-15T03:58:58.144Z,100109.55
2018-12-15T04:01:25.689Z,100111.66
2018-12-15T04:03:53.224Z,100109.06
2018-12-15T04:06:20.782Z,100112.56
2018-12-15T04:08:48.298Z,100116.49
2018-12-15T04:11:15.858Z,100122.86
2018-12-15T04:13:43.390Z,100123.28
2018-12-15T04:16:10.942Z,100114.28
2018-12-15T04:18:38.469Z,100120.70
2018-12-15T04:21:06.015Z,100121.19
2018-12-15T04:23:33.717Z,100116.01
2018-12-15T04:26:01.470Z,100113.84
2018-12-15T04:28:29.008Z,100122.41
2018-12-15T04:30:56.567Z,100115.91
2018-12-15T04:33:24.113Z,100118.49
2018-12-15T04:35:51.662Z,100116.39
2018-12-15T04:38:19.223Z,100121.67
2018-12-15T04:40:46.791Z,100125.42
2018-12-15T04:43:14.396Z,100124.98
2018-12-15T04:45:41.913Z,100120.26
2018-12-15T04:48:11.249Z,100120.23
2018-12-15T04:50:39.024Z,100122.02
2018-12-15T04:53:06.588Z,100118.53
2018-12-15T04:55:34.116Z,100117.70
2018-12-15T04:58:01.770Z,100114.64
2018-12-15T05:00:29.294Z,100105.20
2018-12-15T05:02:56.843Z,100109.88
2018-12-15T05:05:24.357Z,100112.95
2018-12-15T05:07:51.896Z,100110.42
2018-12-15T05:10:19.412Z,100106.19
2018-12-15T05:12:46.951Z,100106.54
2018-12-15T05:15:14.463Z,100104.86
2018-12-15T05:17:42.020Z,100104.82
2018-12-15T05:20:09.542Z,100103.95
2018-12-15T05:22:37.090Z,100103.05
2018-12-15T05:25:05.200Z,100102.70
2018-12-15T05:27:32.760Z,100107.35
2018-12-15T05:30:00.286Z,100102.75
2018-12-15T05:32:27.878Z,100108.66
2018-12-15T05:34:55.403Z,100100.92
2018-12-15T05:37:22.978Z,100094.95
2018-12-15T05:39:50.501Z,100104.80
2018-12-15T05:42:18.064Z,100100.45
2018-12-15T05:44:45.583Z,100102.67
2018-12-15T05:47:13.228Z,100096.17
2018-12-15T05:49:40.748Z,100100.52
2018-12-15T05:52:08.473Z,100105.70
2018-12-15T05:54:36.040Z,100105.68
2018-12-15T05:57:03.604Z,100109.08
2018-12-15T05:59:31.172Z,100108.19
2018-12-15T06:02:00.115Z,100100.09
2018-12-15T06:04:27.659Z,100096.67
2018-12-15T06:06:55.240Z,100107.35
2018-12-15T06:09:22.783Z,100110.41
2018-12-15T06:11:50.340Z,100118.06
2018-12-15T06:14:17.849Z,100121.55
2018-12-15T06:16:45.375Z,100112.97
2018-12-15T06:19:12.930Z,100130.23
2018-12-15T06:21:40.433Z,100125.91
2018-12-15T06:24:07.978Z,100124.56
2018-12-15T06:26:35.533Z,100126.70
2018-12-15T06:29:03.185Z,100122.84
2018-12-15T06:31:30.704Z,100119.42
2018-12-15T06:33:58.243Z,100118.13
2018-12-15T06:36:25.779Z,100113.36
2018-12-15T06:38:53.325Z,100115.09
2018-12-15T06:41:20.847Z,100113.02
2018-12-15T06:43:48.406Z,100120.39
2018-12-15T06:46:16.026Z,100116.50
2018-12-15T06:48:43.602Z,100111.73
2018-12-15T06:51:11.132Z,100115.22
2018-12-15T06:53:38.697Z,100124.72
2018-12-15T06:56:06.222Z,100123.45
2018-12-15T06:58:33.762Z,100123.84
2018-12-15T07:01:01.296Z,100123.84
2018-12-15T07:03:28.842Z,100108.79
2018-12-15T07:05:56.380Z,100119.97
2018-12-15T07:08:23.939Z,100107.48
2018-12-15T07:10:51.472Z,100111.39
2018-12-15T07:13:19.010Z,100110.52
2018-12-15T07:15:46.526Z,100107.03
2018-12-15T07:18:14.096Z,100105.28
2018-12-15T07:20:41.632Z,100110.50
2018-12-15T07:23:09.200Z,100107.00
2018-12-15T07:25:37.116Z,100113.59
2018-12-15T07:28:04.673Z,100117.07
2018-12-15T07:30:32.388Z,100131.16
2018-12-15T07:32:59.946Z,100125.58
2018-12-15T07:35:27.475Z,100122.55
2018-12-15T07:37:55.090Z,100118.66
2018-12-15T07:40:22.612Z,100117.83
2018-12-15T07:42:50.652Z,100121.20
2018-12-15T07:45:18.360Z,100118.59
2018-12-15T07:47:45.938Z,100123.31
2018-12-15T07:50:13.522Z,100127.65
2018-12-15T07:52:41.089Z,100128.92
2018-12-15T07:55:08.694Z,100133.30
2018-12-15T07:57:36.246Z,100137.14
2018-12-15T08:00:05.705Z,100139.67
2018-12-15T08:02:33.260Z,100141.29
2018-12-15T08:05:00.888Z,100141.36
2018-12-15T08:07:28.571Z,100144.80
2018-12-15T08:09:58.938Z,100143.05
2018-12-15T08:12:32.085Z,100153.45
2018-12-15T08:14:59.651Z,100154.30
2018-12-15T08:17:27.232Z,100152.91
2018-12-15T08:19:54.794Z,100146.89
2018-12-15T08:22:26.084Z,100148.64
2018-12-15T08:24:57.692Z,100151.20
2018-12-15T08:27:25.813Z,100143.00
2018-12-15T08:29:53.729Z,100153.39
2018-12-15T08:32:21.359Z,100151.70
2018-12-15T08:34:49.048Z,100152.91
2018-12-15T08:37:16.595Z,100154.17
2018-12-15T08:39:44.163Z,100142.19
2018-12-15T08:42:11.690Z,100151.61
2018-12-15T08:44:39.259Z,100157.58
2018-12-15T08:47:06.816Z,100148.11
2018-12-15T08:49:34.531Z,100150.25
2018-12-15T08:52:02.056Z,100154.12
2018-12-15T08:54:29.622Z,100151.55
2018-12-15T08:56:57.186Z,100145.97
2018-12-15T08:59:24.768Z,100146.46
2018-12-15T09:01:52.347Z,100142.53
2018-12-15T09:04:19.886Z,100143.66
2018-12-15T09:06:47.420Z,100145.09
2018-12-15T09:09:14.993Z,100144.29
2018-12-15T09:11:42.546Z,100137.86
2018-12-15T09:14:10.089Z,100149.36
2018-12-15T09:16:37.620Z,100142.98
2018-12-15T09:19:11.062Z,100139.92
2018-12-15T09:21:34.786Z,100136.44
2018-12-15T09:24:02.466Z,100132.92
2018-12-15T09:26:29.994Z,100132.97
2018-12-15T09:28:57.540Z,100144.16
2018-12-15T09:31:25.189Z,100134.94
2018-12-15T09:33:52.794Z,100139.33
2018-12-15T09:36:20.377Z,100122.67
2018-12-15T09:38:48.042Z,100135.39
2018-12-15T09:41:15.673Z,100131.07
2018-12-15T09:43:43.436Z,100133.74
2018-12-15T09:46:11.131Z,100135.02
2018-12-15T09:48:38.655Z,100134.59
2018-12-15T09:51:06.415Z,100137.11
2018-12-15T09:53:34.027Z,100135.87
2018-12-15T09:56:01.699Z,100136.70
2018-12-15T09:58:29.354Z,100139.66
2018-12-15T10:00:57.110Z,100134.48
2018-12-15T10:03:24.691Z,100129.23
2018-12-15T10:05:52.323Z,100127.80
2018-12-15T10:08:20.433Z,100126.30
2018-12-15T10:10:48.297Z,100120.58
2018-12-15T10:13:15.817Z,100120.12
2018-12-15T10:15:43.358Z,100115.95
2018-12-15T10:18:11.069Z,100116.77
2018-12-15T10:20:38.756Z,100120.61
2018-12-15T10:23:06.504Z,100116.70
2018-12-15T10:25:34.606Z,100107.97
2018-12-15T10:28:02.178Z,100102.03
2018-12-15T10:30:35.212Z,100101.72
2018-12-15T10:33:02.735Z,100092.74
2018-12-15T10:35:30.270Z,100086.67
2018-12-15T10:37:57.783Z,100068.21
2018-12-15T10:40:25.331Z,100082.41
2018-12-15T10:42:53.408Z,100082.32
2018-12-15T10:45:20.963Z,100079.41
2018-12-15T10:47:48.719Z,100085.35
2018-12-15T10:50:16.723Z,100079.13
2018-12-15T10:52:44.466Z,100077.45
2018-12-15T10:55:12.077Z,100077.45
2018-12-15T10:57:39.623Z,100068.64
2018-12-15T11:00:10.878Z,100077.16
2018-12-15T11:02:39.382Z,100073.59
2018-12-15T11:05:07.145Z,100068.29
2018-12-15T11:07:34.963Z,100068.72
2018-12-15T11:10:02.578Z,100065.44
2018-12-15T11:12:31.094Z,100061.23
2018-12-15T11:14:59.325Z,100052.55
2018-12-15T11:17:27.242Z,100058.42
2018-12-15T11:19:54.750Z,100049.94
2018-12-15T11:22:22.305Z,100054.13
2018-12-15T11:24:50.055Z,100048.64
2018-12-15T11:27:17.714Z,100041.56
2018-12-15T11:29:45.342Z,100042.91
2018-12-15T11:32:12.891Z,100044.59
2018-12-15T11:34:40.567Z,100043.59
2018-12-15T11:37:11.827Z,100034.04
2018-12-15T11:39:39.400Z,100028.50
2018-12-15T11:42:07.047Z,100029.36
2018-12-15T11:44:34.619Z,100033.38
2018-12-15T11:47:02.214Z,100027.14
2018-12-15T11:49:29.857Z,100025.91
2018-12-15T11:51:57.413Z,100023.47
2018-12-15T11:54:26.096Z,100014.91
2018-12-15T11:56:53.645Z,100004.17
2018-12-15T11:59:21.170Z,100009.56
2018-12-15T12:01:48.855Z,100011.75
2018-12-15T12:04:16.446Z,99996.40
2018-12-15T12:06:43.987Z,100005.19
2018-12-15T12:09:11.642Z,100002.67
2018-12-15T12:11:39.178Z,100011.30
2018-12-15T12:14:06.683Z,99995.14
2018-12-15T12:16:34.324Z,100004.26
2018-12-15T12:19:02.968Z,99995.73
2018-12-15T12:21:30.563Z,99988.70
2018-12-15T12:23:58.080Z,99996.12
2018-12-15T12:26:25.739Z,100005.11
2018-12-15T12:28:53.349Z,100004.47
2018-12-15T12:31:20.912Z,100000.15
2018-12-15T12:33:48.496Z,99995.56
2018-12-15T12:36:17.958Z,99997.13
2018-12-15T12:38:45.656Z,99995.22
2018-12-15T12:41:13.240Z,99987.22
2018-12-15T12:43:40.800Z,99982.51
2018-12-15T12:46:08.343Z,99979.38
2018-12-15T12:48:35.847Z,99974.06
2018-12-15T12:51:03.676Z,99980.69
2018-12-15T12:53:31.188Z,99972.86
2018-12-15T12:55:58.753Z,99966.05
2018-12-15T12:58:26.351Z,99963.00
2018-12-15T13:00:53.979Z,99958.15
2018-12-15T13:03:21.525Z,99962.58
2018-12-15T13:05:49.040Z,99957.57
2018-12-15T13:08:16.579Z,99949.38
2018-12-15T13:10:44.102Z,99946.66
2018-12-15T13:13:11.650Z,99945.28
2018-12-15T13:15:39.891Z,99946.80
2018-12-15T13:18:07.531Z,99936.12
2018-12-15T13:20:35.041Z,99928.55
2018-12-15T13:23:02.614Z,99937.49
2018-12-15T13:25:30.275Z,99931.33
2018-12-15T13:27:57.984Z,99926.92
2018-12-15T13:30:25.507Z,99934.61
2018-12-15T13:32:53.052Z,99936.72
2018-12-15T13:35:20.568Z,99933.25
2018-12-15T13:37:48.591Z,99934.88
2018-12-15T13:40:16.295Z,99938.17
2018-12-15T13:42:44.064Z,99932.14
2018-12-15T13:45:11.757Z,99917.55
2018-12-15T13:47:39.773Z,99924.63
2018-12-15T13:50:18.505Z,99924.87
2018-12-15T13:52:46.287Z,99920.25
2018-12-15T13:55:14.452Z,99918.60
2018-12-15T13:57:42.035Z,99919.84
2018-12-15T14:00:10.944Z,99918.93
2018-12-15T14:02:40.430Z,99911.48
2018-12-15T14:05:07.975Z,99920.05
2018-12-15T14:07:35.521Z,99911.94
2018-12-15T14:10:04.353Z,99910.99
2018-12-15T14:12:31.938Z,99902.67
2018-12-15T14:15:00.040Z,99907.52
2018-12-15T14:17:27.598Z,99898.72
2018-12-15T14:19:55.137Z,99888.97
2018-12-15T14:22:22.838Z,99893.95
2018-12-15T14:24:50.433Z,99873.05
2018-12-15T14:27:18.904Z,99876.04
2018-12-15T14:29:46.842Z,99886.56
2018-12-15T14:32:14.536Z,99880.06
2018-12-15T14:34:42.208Z,99878.26
2018-12-15T14:37:09.791Z,99882.24
2018-12-15T14:39:39.456Z,99875.69
2018-12-15T14:42:08.436Z,99879.10
2018-12-15T14:44:36.056Z,99869.19
2018-12-15T14:47:04.168Z,99862.89
2018-12-15T14:49:31.747Z,99860.95
2018-12-15T14:51:59.273Z,99862.72
2018-12-15T14:54:26.969Z,99865.34
2018-12-15T14:56:54.612Z,99869.70
2018-12-15T14:59:22.527Z,99861.08
2018-12-15T15:01:50.082Z,99857.70
2018-12-15T15:04:17.640Z,99843.61
2018-12-15T15:06:45.363Z,99845.34
2018-12-15T15:09:14.226Z,99841.05
2018-12-15T15:11:41.838Z,99841.66
2018-12-15T15:14:09.411Z,99841.83
2018-12-15T15:16:36.963Z,99840.17
2018-12-15T15:19:04.584Z,99834.59
2018-12-15T15:21:32.194Z,99830.75
2018-12-15T15:23:59.961Z,99841.74
2018-12-15T15:26:27.511Z,99831.89
2018-12-15T15:28:55.044Z,99845.72
2018-12-15T15:31:22.590Z,99844.16
2018-12-15T15:33:50.159Z,99849.66
2018-12-15T15:36:17.756Z,99846.78
2018-12-15T15:38:45.728Z,99850.64
2018-12-15T15:41:13.234Z,99845.48
2018-12-15T15:43:40.957Z,99839.86
2018-12-15T15:46:08.475Z,99841.75
2018-12-15T15:48:36.066Z,99830.50
2018-12-15T15:51:03.596Z,99830.55
2018-12-15T15:53:31.140Z,99830.06
2018-12-15T15:55:58.656Z,99825.91
2018-12-15T15:58:26.285Z,99824.20
2018-12-15T16:00:53.826Z,99812.69
2018-12-15T16:03:21.980Z,99823.42
2018-12-15T16:05:49.548Z,99820.02
2018-12-15T16:08:17.142Z,99819.13
2018-12-15T16:10:45.025Z,99826.02
2018-12-15T16:13:12.579Z,99821.38
2018-12-15T16:15:40.193Z,99817.37
2018-12-15T16:18:07.739Z,99827.70
2018-12-15T16:20:35.629Z,99826.02
2018-12-15T16:23:03.364Z,99819.65
2018-12-15T16:25:30.983Z,99817.95
2018-12-15T16:27:58.515Z,99816.23
2018-12-15T16:30:26.071Z,99812.47
2018-12-15T16:32:53.637Z,99810.30
2018-12-15T16:35:21.293Z,99803.52
2018-12-15T16:37:49.210Z,99802.99
2018-12-15T16:40:16.756Z,99795.79
2018-12-15T16:42:44.276Z,99788.52
2018-12-15T16:45:11.950Z,99791.58
2018-12-15T16:47:39.738Z,99784.23
2018-12-15T16:50:09.611Z,99784.68
2018-12-15T16:52:37.390Z,99781.22
2018-12-15T16:55:07.153Z,99771.83
2018-12-15T16:57:34.883Z,99773.58
2018-12-15T17:00:02.439Z,99779.58
2018-12-15T17:02:30.212Z,99771.83
2018-12-15T17:04:57.769Z,99770.50
2018-12-15T17:07:25.296Z,99767.05
2018-12-15T17:09:52.856Z,99766.25
2018-12-15T17:12:20.382Z,99764.52
2018-12-15T17:14:47.927Z,99764.98
2018-12-15T17:17:15.451Z,99766.69
2018-12-15T17:19:43.017Z,99765.82
2018-12-15T17:22:10.555Z,99763.20
2018-12-15T17:24:38.102Z,99755.92
2018-12-15T17:27:05.644Z,99752.50
2018-12-15T17:29:33.206Z,99741.75
2018-12-15T17:32:00.728Z,99725.83
2018-12-15T17:34:28.309Z,99718.48
2018-12-15T17:36:55.825Z,99718.89
2018-12-15T17:39:23.391Z,99718.94
2018-12-15T17:41:50.911Z,99710.38
2018-12-15T17:44:18.525Z,99704.27
2018-12-15T17:46:46.040Z,99702.94
2018-12-15T17:49:13.594Z,99697.77
2018-12-15T17:51:41.123Z,99689.63
2018-12-15T17:54:08.674Z,99688.78
2018-12-15T17:56:36.183Z,99682.37
2018-12-15T17:59:03.982Z,99675.14
2018-12-15T18:01:31.506Z,99676.45
2018-12-15T18:03:59.036Z,99674.23
2018-12-15T18:06:26.583Z,99680.33
2018-12-15T18:08:54.104Z,99674.86
2018-12-15T18:11:21.652Z,99665.31
2018-12-15T18:13:49.158Z,99676.54
2018-12-15T18:16:16.858Z,99668.78
2018-12-15T18:18:44.356Z,99670.88
2018-12-15T18:21:11.902Z,99666.63
2018-12-15T18:23:39.407Z,99667.42
2018-12-15T18:26:06.964Z,99660.98
2018-12-15T18:28:35.265Z,99664.44
2018-12-15T18:31:02.814Z,99660.62
2018-12-15T18:33:36.878Z,99653.81
2018-12-15T18:35:59.907Z,99638.77
2018-12-15T18:38:27.411Z,99634.11
2018-12-15T18:40:54.956Z,99636.22
2018-12-15T18:43:22.529Z,99631.52
2018-12-15T18:45:50.089Z,99634.06
2018-12-15T18:48:17.632Z,99635.30
2018-12-15T18:50:45.224Z,99635.30
2018-12-15T18:53:12.753Z,99618.52
2018-12-15T18:55:40.316Z,99613.79
2018-12-15T18:58:09.850Z,99608.48
2018-12-15T19:00:37.419Z,99614.05
2018-12-15T19:03:04.932Z,99603.73
2018-12-15T19:05:32.509Z,99610.19
2018-12-15T19:08:00.078Z,99600.91
2018-12-15T19:10:27.624Z,99598.33
2018-12-15T19:12:55.155Z,99600.50
2018-12-15T19:15:22.726Z,99598.75
2018-12-15T19:17:50.250Z,99589.46
2018-12-15T19:20:17.822Z,99590.73
2018-12-15T19:22:45.386Z,99584.74
2018-12-15T19:25:13.042Z,99581.16
2018-12-15T19:27:41.443Z,99571.70
2018-12-15T19:30:09.200Z,99560.59
2018-12-15T19:32:36.744Z,99558.50
2018-12-15T19:35:04.894Z,99563.05
2018-12-15T19:37:32.973Z,99557.58
2018-12-15T19:40:00.599Z,99549.33
2018-12-15T19:42:28.197Z,99555.92
2018-12-15T19:44:55.793Z,99557.70
2018-12-15T19:47:23.408Z,99557.56
2018-12-15T19:49:50.956Z,99549.81
2018-12-15T19:52:18.507Z,99553.11
2018-12-15T19:54:47.011Z,99556.56
2018-12-15T19:57:14.616Z,99548.49
2018-12-15T19:59:42.141Z,99551.09
2018-12-15T20:02:10.164Z,99549.00
2018-12-15T20:04:37.792Z,99546.36
2018-12-15T20:07:05.511Z,99545.00
2018-12-15T20:09:33.119Z,99543.43
2018-12-15T20:12:01.188Z,99541.53
2018-12-15T20:14:29.011Z,99537.70
2018-12-15T20:16:56.579Z,99538.95
2018-12-15T20:19:24.224Z,99532.63
2018-12-15T20:21:51.918Z,99529.26
2018-12-15T20:24:19.458Z,99531.39
2018-12-15T20:26:47.153Z,99526.92
2018-12-15T20:29:14.773Z,99533.38
2018-12-15T20:31:42.416Z,99522.58
2018-12-15T20:34:10.031Z,99506.81
2018-12-15T20:36:37.615Z,99504.33
2018-12-15T20:39:06.533Z,99495.66
2018-12-15T20:41:34.155Z,99497.39
2018-12-15T20:44:01.706Z,99496.45
2018-12-15T20:46:29.287Z,99490.27
2018-12-15T20:48:56.935Z,99479.59
2018-12-15T20:51:24.515Z,99483.06
2018-12-15T20:53:52.085Z,99476.22
2018-12-15T20:56:19.643Z,99471.62
2018-12-15T20:58:47.182Z,99463.33
2018-12-15T21:01:14.761Z,99465.98
2018-12-15T21:03:42.316Z,99456.82
2018-12-15T21:06:09.946Z,99450.50
2018-12-15T21:08:37.495Z,99454.70
2018-12-15T21:11:06.626Z,99449.61
2018-12-15T21:13:34.157Z,99452.56
2018-12-15T21:16:01.726Z,99441.46
2018-12-15T21:18:29.231Z,99430.06
2018-12-15T21:20:57.058Z,99443.25
2018-12-15T21:23:24.607Z,99435.89
2018-12-15T21:25:52.135Z,99431.35
2018-12-15T21:28:19.705Z,99432.17
2018-12-15T21:30:47.240Z,99428.29
2018-12-15T21:33:14.805Z,99426.12
2018-12-15T21:35:42.339Z,99422.39
2018-12-15T21:38:09.912Z,99417.47
2018-12-15T21:40:37.443Z,99413.41
2018-12-15T21:43:05.002Z,99398.45
2018-12-15T21:45:32.524Z,99389.75
2018-12-15T21:48:00.134Z,99378.41
2018-12-15T21:50:28.658Z,99383.14
2018-12-15T21:52:56.225Z,99368.53
2018-12-15T21:55:23.765Z,99357.55
2018-12-15T21:57:51.325Z,99350.67
2018-12-15T22:00:18.849Z,99337.29
2018-12-15T22:02:46.424Z,99326.20
2018-12-15T22:05:13.976Z,99316.50
2018-12-15T22:07:41.688Z,99307.70
2018-12-15T22:10:09.308Z,99306.20
2018-12-15T22:12:37.362Z,99301.08
2018-12-15T22:15:06.115Z,99293.48
2018-12-15T22:17:34.039Z,99287.15
2018-12-15T22:20:01.684Z,99286.80
2018-12-15T22:22:29.228Z,99291.66
2018-12-15T22:24:56.837Z,99289.45
2018-12-15T22:27:24.386Z,99278.30
2018-12-15T22:29:51.900Z,99272.37
2018-12-15T22:32:19.487Z,99277.25
2018-12-15T22:34:47.177Z,99273.78
2018-12-15T22:37:14.724Z,99263.49
2018-12-15T22:39:42.544Z,99257.73
2018-12-15T22:42:10.591Z,99259.72
2018-12-15T22:44:38.601Z,99254.05
2018-12-15T22:47:06.672Z,99247.75
2018-12-15T22:49:34.430Z,99250.17
2018-12-15T22:52:02.125Z,99246.99
2018-12-15T22:54:31.932Z,99245.17
2018-12-15T22:57:01.199Z,99237.28
2018-12-15T22:59:29.131Z,99235.98
2018-12-15T23:01:56.663Z,99227.73
2018-12-15T23:04:24.759Z,99232.02
2018-12-15T23:06:52.552Z,99227.62
2018-12-15T23:09:21.119Z,99224.76
2018-12-15T23:11:48.688Z,99211.28
2018-12-15T23:14:16.239Z,99214.05
2018-12-15T23:16:43.776Z,99207.88
2018-12-15T23:19:11.655Z,99207.53
2018-12-15T23:21:39.283Z,99214.00
2018-12-15T23:24:06.846Z,99207.22
2018-12-15T23:26:36.627Z,99212.43
2018-12-15T23:29:04.363Z,99210.38
2018-12-15T23:31:32.015Z,99213.86
2018-12-15T23:33:59.639Z,99208.56
2018-12-15T23:36:27.304Z,99215.94
2018-12-15T23:38:54.930Z,99207.64
2018-12-15T23:41:22.769Z,99201.55
2018-12-15T23:43:50.445Z,99203.23
2018-12-15T23:46:18.060Z,99199.84
2018-12-15T23:48:45.928Z,99198.61
2018-12-15T23:51:13.592Z,99187.36
2018-12-15T23:53:41.575Z,99186.71
2018-12-15T23:56:09.411Z,99179.88
2018-12-15T23:58:37.197Z,99169.16
